Time,TemperatureF,DewpointF,PressureIn,WindDirection,WindDirectionDegrees,WindSpeedMPH,WindSpeedGustMPH,Humidity,HourlyPrecipIn,Conditions,Clouds,dailyrainin,SolarRadiationWatts/m^2,SoftwareType,DateUTC
2013-01-21 00:00:00,30.9,30.1,29.74,East,90,0.0,0.0,97,0.00,,,0.00,0,Homeseer,2013-01-20 23:00:00,
2013-01-21 00:05:00,30.9,30.1,29.74,SE,135,0.0,0.0,97,0.00,,,0.00,0,Homeseer,2013-01-20 23:05:00,
2013-01-21 00:10:00,30.9,30.1,29.74,East,90,0.0,0.0,97,0.00,,,0.00,0,Homeseer,2013-01-20 23:10:00,
2013-01-21 00:15:00,30.9,30.1,29.74,NE,45,0.0,0.0,97,0.00,,,0.00,0,Homeseer,2013-01-20 23:15:00,
2013-01-21 00:20:00,30.9,30.1,29.74,SE,135,0.0,0.0,97,0.00,,,0.00,0,Homeseer,2013-01-20 23:20:00,
2013-01-21 00:25:00,30.9,30.1,29.74,East,90,0.0,0.0,97,0.00,,,0.00,0,Homeseer,2013-01-20 23:25:00,
2013-01-21 00:30:00,30.9,30.1,29.74,East,90,0.0,0.0,97,0.00,,,0.00,0,Homeseer,2013-01-20 23:30:00,
2013-01-21 00:35:00,30.9,30.1,29.74,NE,45,0.0,0.0,97,0.00,,,0.00,0,Homeseer,2013-01-20 23:35:00,
2013-01-21 00:40:00,30.9,30.1,29.74,East,90,0.0,0.0,97,0.00,,,0.00,0,Homeseer,2013-01-20 23:40:00,
2013-01-21 00:45:00,30.9,30.1,29.74,SE,135,0.0,0.0,97,0.00,,,0.00,0,Homeseer,2013-01-20 23:45:00,
2013-01-21 00:50:00,30.9,30.1,29.74,East,90,0.0,0.0,97,0.00,,,0.00,0,Homeseer,2013-01-20 23:50:00,
2013-01-21 00:55:00,30.8,30.0,29.74,East,90,0.0,0.0,97,0.00,,,0.00,0,Homeseer,2013-01-20 23:55:00,
2013-01-21 01:00:00,30.8,30.0,29.74,SE,135,0.0,0.0,97,0.00,,,0.00,0,Homeseer,2013-01-21 00:00:00,
2013-01-21 01:05:00,30.6,29.9,29.74,SE,135,0.0,0.0,97,0.00,,,0.00,0,Homeseer,2013-01-21 00:05:00,
2013-01-21 01:10:00,30.6,29.9,29.74,SE,135,0.0,0.0,97,0.00,,,0.00,0,Homeseer,2013-01-21 00:10:00,
2013-01-21 01:15:00,30.5,29.8,29.74,SE,135,0.0,0.0,97,0.00,,,0.00,0,Homeseer,2013-01-21 00:15:00,
2013-01-21 01:20:00,30.5,29.8,29.74,South,180,0.0,0.0,97,0.00,,,0.00,0,Homeseer,2013-01-21 00:20:00,
2013-01-21 01:25:00,30.5,29.8,29.74,South,180,0.0,0.0,97,0.00,,,0.00,0,Homeseer,2013-01-21 00:25:00,
2013-01-21 01:30:00,30.4,29.7,29.74,SW,225,0.0,0.0,97,0.00,,,0.00,0,Homeseer,2013-01-21 00:30:00,
2013-01-21 01:35:00,30.5,29.8,29.74,SW,225,0.0,0.0,97,0.00,,,0.00,0,Homeseer,2013-01-21 00:35:00,
2013-01-21 01:45:00,30.4,29.7,29.74,SE,135,0.0,0.0,97,0.00,,,0.00,0,Homeseer,2013-01-21 00:45:00,
2013-01-21 01:50:00,30.4,29.7,29.74,SE,135,0.0,0.0,97,0.00,,,0.00,0,Homeseer,2013-01-21 00:50:00,
2013-01-21 01:55:00,30.3,29.6,29.74,SE,135,0.0,0.0,97,0.00,,,0.00,0,Homeseer,2013-01-21 00:55:00,
2013-01-21 02:00:00,30.3,29.6,29.74,SE,135,0.0,0.0,97,0.00,,,0.00,0,Homeseer,2013-01-21 01:00:00,
2013-01-21 02:05:00,30.2,29.5,29.74,SE,135,0.0,0.0,97,0.00,,,0.00,0,Homeseer,2013-01-21 01:05:00,
2013-01-21 02:10:00,30.3,29.6,29.74,SE,135,0.0,0.0,97,0.00,,,0.00,0,Homeseer,2013-01-21 01:10:00,
2013-01-21 02:15:00,30.2,29.5,29.74,SE,135,0.0,0.0,97,0.00,,,0.00,0,Homeseer,2013-01-21 01:15:00,
2013-01-21 02:20:00,30.2,29.5,29.74,SE,135,0.0,0.0,97,0.00,,,0.00,0,Homeseer,2013-01-21 01:20:00,
2013-01-21 02:25:00,30.3,29.6,29.74,SE,135,0.0,0.0,97,0.00,,,0.00,0,Homeseer,2013-01-21 01:25:00,
2013-01-21 02:30:00,30.3,29.6,29.74,SE,135,0.0,0.0,97,0.00,,,0.00,0,Homeseer,2013-01-21 01:30:00,
2013-01-21 02:35:00,30.4,29.7,29.74,SE,135,0.0,0.0,97,0.00,,,0.00,0,Homeseer,2013-01-21 01:35:00,
2013-01-21 02:40:00,30.3,29.6,29.74,SE,135,0.0,0.0,97,0.00,,,0.00,0,Homeseer,2013-01-21 01:40:00,
2013-01-21 02:50:00,30.3,29.6,29.74,SE,135,0.0,0.0,97,0.00,,,0.00,0,Homeseer,2013-01-21 01:50:00,
2013-01-21 02:55:00,30.3,29.6,29.74,East,90,0.0,0.0,97,0.00,,,0.00,0,Homeseer,2013-01-21 01:55:00,
2013-01-21 03:00:00,30.2,29.5,29.74,SE,135,0.0,0.0,97,0.00,,,0.00,0,Homeseer,2013-01-21 02:00:00,
2013-01-21 03:05:00,30.3,29.6,29.74,SE,135,0.0,0.0,97,0.00,,,0.00,0,Homeseer,2013-01-21 02:05:00,
2013-01-21 03:10:00,30.2,29.5,29.74,SE,135,0.0,0.0,97,0.00,,,0.00,0,Homeseer,2013-01-21 02:10:00,
2013-01-21 03:15:00,30.2,29.5,29.74,South,180,0.0,0.0,97,0.00,,,0.00,0,Homeseer,2013-01-21 02:15:00,
2013-01-21 03:20:00,30.3,29.6,29.77,South,180,0.0,0.0,97,0.00,,,0.00,0,Homeseer,2013-01-21 02:20:00,
2013-01-21 03:25:00,30.3,29.6,29.77,South,180,0.0,0.0,97,0.00,,,0.00,0,Homeseer,2013-01-21 02:25:00,
2013-01-21 03:30:00,30.2,29.5,29.77,South,180,0.0,0.0,97,0.00,,,0.00,0,Homeseer,2013-01-21 02:30:00,
2013-01-21 03:40:00,30.1,29.3,29.74,South,180,0.0,0.0,97,0.00,,,0.00,0,Homeseer,2013-01-21 02:40:00,
2013-01-21 03:45:00,30.1,29.3,29.77,South,180,0.0,0.0,97,0.00,,,0.00,0,Homeseer,2013-01-21 02:45:00,
2013-01-21 03:50:00,30.1,29.3,29.77,SE,135,0.0,0.0,97,0.00,,,0.00,0,Homeseer,2013-01-21 02:50:00,
2013-01-21 03:55:00,30.0,29.2,29.77,SE,135,0.0,0.0,97,0.00,,,0.00,0,Homeseer,2013-01-21 02:55:00,
2013-01-21 04:00:00,30.0,29.2,29.77,SE,135,0.0,0.0,97,0.00,,,0.00,0,Homeseer,2013-01-21 03:00:00,
2013-01-21 04:05:00,29.9,29.1,29.77,SE,135,0.0,0.0,97,0.00,,,0.00,0,Homeseer,2013-01-21 03:05:00,
2013-01-21 04:10:00,29.9,29.1,29.77,SE,135,0.0,0.0,97,0.00,,,0.00,0,Homeseer,2013-01-21 03:10:00,
2013-01-21 04:15:00,29.8,29.0,29.77,SE,135,0.0,0.0,97,0.00,,,0.00,0,Homeseer,2013-01-21 03:15:00,
2013-01-21 04:20:00,29.8,29.0,29.77,SE,135,0.0,0.0,97,0.00,,,0.00,0,Homeseer,2013-01-21 03:20:00,
2013-01-21 04:25:00,29.8,29.0,29.77,SE,135,0.0,0.0,97,0.00,,,0.00,0,Homeseer,2013-01-21 03:25:00,
2013-01-21 04:30:00,29.8,29.0,29.77,SE,135,0.0,0.0,97,0.00,,,0.00,0,Homeseer,2013-01-21 03:30:00,
2013-01-21 04:35:00,29.6,28.9,29.77,SE,135,0.0,0.0,97,0.00,,,0.00,0,Homeseer,2013-01-21 03:35:00,
2013-01-21 04:40:00,29.6,28.9,29.77,SE,135,0.0,0.0,97,0.00,,,0.00,0,Homeseer,2013-01-21 03:40:00,
2013-01-21 04:45:00,29.5,28.8,29.77,SE,135,0.0,0.0,97,0.00,,,0.00,0,Homeseer,2013-01-21 03:45:00,
2013-01-21 04:50:00,29.4,28.7,29.77,East,90,0.0,0.0,97,0.00,,,0.00,0,Homeseer,2013-01-21 03:50:00,
2013-01-21 04:55:00,29.3,28.6,29.77,SE,135,0.0,0.0,97,0.00,,,0.00,0,Homeseer,2013-01-21 03:55:00,
2013-01-21 05:00:00,29.3,28.6,29.77,SE,135,0.0,0.0,97,0.00,,,0.00,0,Homeseer,2013-01-21 04:00:00,
2013-01-21 05:05:00,29.3,28.6,29.77,SE,135,0.0,0.0,97,0.00,,,0.00,0,Homeseer,2013-01-21 04:05:00,
2013-01-21 05:10:00,29.3,28.6,29.77,SE,135,0.0,0.0,97,0.00,,,0.00,0,Homeseer,2013-01-21 04:10:00,
2013-01-21 05:15:00,29.3,28.6,29.77,SE,135,0.0,0.0,97,0.00,,,0.00,0,Homeseer,2013-01-21 04:15:00,
2013-01-21 05:20:00,29.3,28.6,29.77,SE,135,0.0,0.0,97,0.00,,,0.00,0,Homeseer,2013-01-21 04:20:00,
2013-01-21 05:25:00,29.3,28.6,29.77,SE,135,0.0,0.0,97,0.00,,,0.00,0,Homeseer,2013-01-21 04:25:00,
2013-01-21 05:30:00,29.3,28.6,29.77,SE,135,0.0,0.0,97,0.00,,,0.00,0,Homeseer,2013-01-21 04:30:00,
2013-01-21 05:35:00,29.3,28.6,29.77,SE,135,0.0,0.0,97,0.00,,,0.00,0,Homeseer,2013-01-21 04:35:00,
2013-01-21 05:40:00,29.3,28.6,29.77,SE,135,0.0,0.0,97,0.00,,,0.00,0,Homeseer,2013-01-21 04:40:00,
2013-01-21 05:45:00,29.3,28.6,29.77,East,90,0.0,0.0,97,0.00,,,0.00,0,Homeseer,2013-01-21 04:45:00,
2013-01-21 05:50:00,29.3,28.6,29.77,East,90,0.0,0.0,97,0.00,,,0.00,0,Homeseer,2013-01-21 04:50:00,
2013-01-21 05:55:00,29.4,28.7,29.77,East,90,0.0,0.0,97,0.00,,,0.00,0,Homeseer,2013-01-21 04:55:00,
2013-01-21 06:00:00,29.3,28.6,29.77,East,90,0.0,0.0,97,0.00,,,0.00,0,Homeseer,2013-01-21 05:00:00,
2013-01-21 06:10:00,29.3,28.6,29.77,SE,135,0.0,0.0,97,0.00,,,0.00,0,Homeseer,2013-01-21 05:10:00,
2013-01-21 06:15:00,29.2,28.4,29.77,East,90,0.0,0.0,97,0.00,,,0.00,0,Homeseer,2013-01-21 05:15:00,
2013-01-21 06:20:00,29.3,28.6,29.77,East,90,0.0,0.0,97,0.00,,,0.00,0,Homeseer,2013-01-21 05:20:00,
2013-01-21 06:25:00,29.3,28.6,29.77,East,90,0.0,0.0,97,0.00,,,0.00,0,Homeseer,2013-01-21 05:25:00,
2013-01-21 06:30:00,29.4,28.7,29.77,East,90,0.0,0.0,97,0.00,,,0.00,0,Homeseer,2013-01-21 05:30:00,
2013-01-21 06:35:00,29.4,28.7,29.77,East,90,0.0,0.0,97,0.00,,,0.00,0,Homeseer,2013-01-21 05:35:00,
2013-01-21 06:40:00,29.5,28.8,29.77,East,90,0.0,0.0,97,0.00,,,0.00,0,Homeseer,2013-01-21 05:40:00,
2013-01-21 06:45:00,29.5,28.8,29.77,East,90,0.0,0.0,97,0.00,,,0.00,0,Homeseer,2013-01-21 05:45:00,
2013-01-21 06:50:00,29.6,28.9,29.77,SE,135,0.0,0.0,97,0.00,,,0.00,0,Homeseer,2013-01-21 05:50:00,
2013-01-21 06:55:00,29.6,28.9,29.77,SE,135,0.0,0.0,97,0.00,,,0.00,0,Homeseer,2013-01-21 05:55:00,
2013-01-21 07:00:00,29.6,28.9,29.77,SE,135,0.0,0.0,97,0.00,,,0.00,0,Homeseer,2013-01-21 06:00:00,
2013-01-21 07:05:00,29.8,29.0,29.77,East,90,0.0,0.0,97,0.00,,,0.00,0,Homeseer,2013-01-21 06:05:00,
2013-01-21 07:10:00,29.8,29.0,29.77,East,90,0.0,0.0,97,0.00,,,0.00,0,Homeseer,2013-01-21 06:10:00,
2013-01-21 07:15:00,29.8,29.0,29.77,East,90,0.0,0.0,97,0.00,,,0.00,0,Homeseer,2013-01-21 06:15:00,
2013-01-21 07:20:00,29.8,29.0,29.77,East,90,0.0,0.0,97,0.00,,,0.00,0,Homeseer,2013-01-21 06:20:00,
2013-01-21 07:25:00,29.8,29.0,29.77,East,90,0.0,0.0,97,0.00,,,0.00,0,Homeseer,2013-01-21 06:25:00,
2013-01-21 07:30:00,29.8,29.0,29.77,East,90,0.0,0.0,97,0.00,,,0.00,0,Homeseer,2013-01-21 06:30:00,
2013-01-21 07:35:00,29.9,29.1,29.77,East,90,0.0,0.0,97,0.00,,,0.00,0,Homeseer,2013-01-21 06:35:00,
2013-01-21 07:40:00,30.0,29.2,29.77,SE,135,0.0,0.0,97,0.00,,,0.00,0,Homeseer,2013-01-21 06:40:00,
2013-01-21 07:45:00,30.0,29.2,29.77,East,90,0.0,0.0,97,0.00,,,0.00,0,Homeseer,2013-01-21 06:45:00,
2013-01-21 07:50:00,30.0,29.2,29.77,East,90,0.0,0.0,97,0.00,,,0.00,0,Homeseer,2013-01-21 06:50:00,
2013-01-21 07:55:00,30.0,29.2,29.77,SE,135,0.0,0.0,97,0.00,,,0.00,0,Homeseer,2013-01-21 06:55:00,
2013-01-21 08:00:00,30.1,29.3,29.77,SE,135,0.0,0.0,97,0.00,,,0.00,0,Homeseer,2013-01-21 07:00:00,
2013-01-21 08:05:00,30.1,29.3,29.77,SE,135,0.0,0.0,97,0.00,,,0.00,0,Homeseer,2013-01-21 07:05:00,
2013-01-21 08:10:00,30.1,29.3,29.77,SE,135,0.0,0.0,97,0.00,,,0.00,0,Homeseer,2013-01-21 07:10:00,
2013-01-21 08:15:00,30.1,29.3,29.77,East,90,0.0,0.0,97,0.00,,,0.00,0,Homeseer,2013-01-21 07:15:00,
2013-01-21 08:20:00,30.1,29.3,29.77,SE,135,0.0,0.0,97,0.00,,,0.00,0,Homeseer,2013-01-21 07:20:00,
2013-01-21 08:25:00,30.1,29.3,29.77,East,90,0.0,0.0,97,0.00,,,0.00,0,Homeseer,2013-01-21 07:25:00,
2013-01-21 08:30:00,30.2,29.5,29.77,East,90,0.0,0.0,97,0.00,,,0.00,0,Homeseer,2013-01-21 07:30:00,
2013-01-21 08:35:00,30.2,29.5,29.77,East,90,0.0,0.0,97,0.00,,,0.00,0,Homeseer,2013-01-21 07:35:00,
2013-01-21 08:40:00,30.2,29.5,29.77,SE,135,0.0,0.0,97,0.00,,,0.00,0,Homeseer,2013-01-21 07:40:00,
2013-01-21 08:45:00,30.2,29.5,29.77,East,90,0.0,0.0,97,0.00,,,0.00,0,Homeseer,2013-01-21 07:45:00,
2013-01-21 08:50:00,30.2,29.5,29.77,SE,135,0.0,0.0,97,0.00,,,0.00,4,Homeseer,2013-01-21 07:50:00,
2013-01-21 08:55:00,30.2,29.5,29.77,SE,135,0.0,0.0,97,0.00,,,0.00,4,Homeseer,2013-01-21 07:55:00,
2013-01-21 09:00:00,30.2,29.5,29.77,SE,135,0.0,0.0,97,0.00,,,0.00,4,Homeseer,2013-01-21 08:00:00,
2013-01-21 09:05:00,30.3,29.6,29.77,SE,135,0.0,0.0,97,0.00,,,0.00,8,Homeseer,2013-01-21 08:05:00,
2013-01-21 09:10:00,30.4,29.7,29.77,East,90,0.0,0.0,97,0.00,,,0.00,8,Homeseer,2013-01-21 08:10:00,
2013-01-21 09:15:00,30.5,29.8,29.77,SE,135,0.0,0.0,97,0.00,,,0.00,12,Homeseer,2013-01-21 08:15:00,
2013-01-21 09:20:00,30.5,29.8,29.77,SE,135,0.0,0.0,97,0.00,,,0.00,12,Homeseer,2013-01-21 08:20:00,
2013-01-21 09:25:00,30.6,29.9,29.77,SE,135,0.0,0.0,97,0.00,,,0.00,16,Homeseer,2013-01-21 08:25:00,
2013-01-21 09:30:00,30.6,29.9,29.77,East,90,0.0,0.0,97,0.00,,,0.00,20,Homeseer,2013-01-21 08:30:00,
2013-01-21 09:35:00,30.8,30.0,29.77,East,90,0.0,0.0,97,0.00,,,0.00,20,Homeseer,2013-01-21 08:35:00,
2013-01-21 09:40:00,30.9,30.1,29.77,SE,135,0.0,0.0,97,0.00,,,0.00,24,Homeseer,2013-01-21 08:40:00,
2013-01-21 09:45:00,31.0,30.2,29.77,East,90,0.0,0.0,97,0.00,,,0.00,28,Homeseer,2013-01-21 08:45:00,
2013-01-21 09:50:00,31.0,30.2,29.77,East,90,0.0,0.0,97,0.00,,,0.00,36,Homeseer,2013-01-21 08:50:00,
2013-01-21 09:55:00,31.0,30.2,29.77,East,90,0.0,0.0,97,0.00,,,0.00,44,Homeseer,2013-01-21 08:55:00,
2013-01-21 10:00:00,31.2,30.5,29.77,East,90,0.0,0.0,97,0.00,,,0.00,48,Homeseer,2013-01-21 09:00:00,
2013-01-21 10:05:00,31.2,30.5,29.77,East,90,0.0,0.0,97,0.00,,,0.00,48,Homeseer,2013-01-21 09:05:00,
2013-01-21 10:10:00,31.3,30.6,29.77,East,90,0.0,0.0,97,0.00,,,0.00,52,Homeseer,2013-01-21 09:10:00,
2013-01-21 10:15:00,31.4,30.7,29.77,SE,135,0.0,0.0,97,0.00,,,0.00,56,Homeseer,2013-01-21 09:15:00,
2013-01-21 10:20:00,31.4,30.7,29.77,East,90,0.0,0.0,97,0.00,,,0.00,56,Homeseer,2013-01-21 09:20:00,
2013-01-21 10:25:00,31.5,30.8,29.80,East,90,0.0,0.0,97,0.00,,,0.00,56,Homeseer,2013-01-21 09:25:00,
2013-01-21 10:30:00,31.5,30.8,29.80,East,90,0.0,0.0,97,0.00,,,0.00,56,Homeseer,2013-01-21 09:30:00,
2013-01-21 10:35:00,31.7,30.9,29.77,East,90,0.0,0.0,97,0.00,,,0.00,64,Homeseer,2013-01-21 09:35:00,
2013-01-21 10:40:00,31.7,30.9,29.80,East,90,0.0,0.0,97,0.00,,,0.00,64,Homeseer,2013-01-21 09:40:00,
2013-01-21 10:45:00,31.8,31.0,29.80,East,90,0.0,0.0,97,0.00,,,0.00,64,Homeseer,2013-01-21 09:45:00,
2013-01-21 10:50:00,31.9,31.1,29.77,East,90,0.0,0.0,97,0.00,,,0.00,68,Homeseer,2013-01-21 09:50:00,
2013-01-21 10:55:00,31.9,31.1,29.80,SE,135,0.0,0.0,97,0.00,,,0.00,76,Homeseer,2013-01-21 09:55:00,
2013-01-21 11:00:00,32.0,31.2,29.80,SE,135,0.0,0.0,97,0.00,,,0.00,80,Homeseer,2013-01-21 10:00:00,
2013-01-21 11:05:00,32.0,31.2,29.77,East,90,0.0,0.0,97,0.00,,,0.00,88,Homeseer,2013-01-21 10:05:00,
2013-01-21 11:10:00,32.2,31.5,29.80,East,90,0.0,0.0,97,0.00,,,0.00,92,Homeseer,2013-01-21 10:10:00,
2013-01-21 11:15:00,32.2,31.5,29.80,SE,135,0.0,0.0,97,0.00,,,0.00,92,Homeseer,2013-01-21 10:15:00,
2013-01-21 11:20:00,32.3,31.6,29.80,East,90,0.0,0.0,97,0.00,,,0.00,92,Homeseer,2013-01-21 10:20:00,
2013-01-21 11:25:00,32.5,31.7,29.80,East,90,0.0,0.0,97,0.00,,,0.00,100,Homeseer,2013-01-21 10:25:00,
2013-01-21 11:30:00,32.5,31.7,29.80,East,90,0.0,0.0,97,0.00,,,0.00,103,Homeseer,2013-01-21 10:30:00,
2013-01-21 11:35:00,32.6,31.8,29.80,East,90,0.0,0.0,97,0.00,,,0.00,103,Homeseer,2013-01-21 10:35:00,
2013-01-21 11:40:00,32.6,31.8,29.80,East,90,0.0,0.0,97,0.00,,,0.00,107,Homeseer,2013-01-21 10:40:00,
2013-01-21 11:45:00,32.7,31.9,29.80,East,90,0.0,0.0,97,0.00,,,0.00,100,Homeseer,2013-01-21 10:45:00,
2013-01-21 11:50:00,32.7,31.9,29.80,East,90,0.0,0.0,97,0.00,,,0.00,100,Homeseer,2013-01-21 10:50:00,
2013-01-21 11:55:00,32.8,32.0,29.80,East,90,0.0,0.0,97,0.00,,,0.00,100,Homeseer,2013-01-21 10:55:00,
2013-01-21 12:05:00,33.1,32.4,29.80,SE,135,0.0,0.0,97,0.00,,,0.00,107,Homeseer,2013-01-21 11:05:00,
2013-01-21 12:10:00,33.1,32.4,29.80,East,90,0.0,0.0,97,0.00,,,0.00,100,Homeseer,2013-01-21 11:10:00,
2013-01-21 12:15:00,33.1,32.4,29.80,East,90,0.0,0.0,97,0.00,,,0.00,96,Homeseer,2013-01-21 11:15:00,
2013-01-21 12:20:00,33.1,32.4,29.80,East,90,0.0,0.0,97,0.00,,,0.00,84,Homeseer,2013-01-21 11:20:00,
2013-01-21 12:25:00,33.0,32.2,29.80,SE,135,0.0,0.0,97,0.00,,,0.00,84,Homeseer,2013-01-21 11:25:00,
2013-01-21 12:30:00,33.1,32.4,29.77,East,90,0.0,0.0,97,0.00,,,0.00,80,Homeseer,2013-01-21 11:30:00,
2013-01-21 12:35:00,33.1,32.4,29.80,East,90,0.0,0.0,97,0.00,,,0.00,88,Homeseer,2013-01-21 11:35:00,
2013-01-21 12:40:00,33.2,32.5,29.80,SE,135,0.0,0.0,97,0.00,,,0.00,92,Homeseer,2013-01-21 11:40:00,
2013-01-21 12:45:00,33.2,32.5,29.80,East,90,0.0,0.0,97,0.00,,,0.00,107,Homeseer,2013-01-21 11:45:00,
2013-01-21 12:50:00,33.2,32.5,29.77,SE,135,0.0,0.0,97,0.00,,,0.00,111,Homeseer,2013-01-21 11:50:00,
2013-01-21 13:00:00,33.5,32.7,29.80,East,90,0.0,0.0,97,0.00,,,0.00,103,Homeseer,2013-01-21 12:00:00,
2013-01-21 13:05:00,33.5,32.7,29.80,SE,135,0.0,0.0,97,0.00,,,0.00,107,Homeseer,2013-01-21 12:05:00,
2013-01-21 13:10:00,33.5,32.7,29.80,East,90,0.0,0.0,97,0.00,,,0.00,111,Homeseer,2013-01-21 12:10:00,
2013-01-21 13:15:00,33.6,32.8,29.80,East,90,0.0,0.0,97,0.00,,,0.00,123,Homeseer,2013-01-21 12:15:00,
2013-01-21 13:20:00,33.7,32.9,29.77,East,90,0.0,0.0,97,0.00,,,0.00,131,Homeseer,2013-01-21 12:20:00,
2013-01-21 13:25:00,33.8,33.0,29.77,East,90,0.0,0.0,97,0.00,,,0.00,119,Homeseer,2013-01-21 12:25:00,
2013-01-21 13:30:00,33.8,33.0,29.80,East,90,0.0,0.0,97,0.00,,,0.00,100,Homeseer,2013-01-21 12:30:00,
2013-01-21 13:35:00,33.7,32.9,29.77,East,90,0.0,0.0,97,0.00,,,0.00,80,Homeseer,2013-01-21 12:35:00,
2013-01-21 13:40:00,33.6,32.8,29.77,East,90,0.0,0.0,97,0.00,,,0.00,76,Homeseer,2013-01-21 12:40:00,
2013-01-21 13:45:00,33.6,32.8,29.80,SE,135,0.0,0.0,97,0.00,,,0.00,84,Homeseer,2013-01-21 12:45:00,
2013-01-21 13:50:00,33.7,32.9,29.77,NE,45,0.0,0.0,97,0.00,,,0.00,92,Homeseer,2013-01-21 12:50:00,
2013-01-21 13:55:00,33.8,33.0,29.80,NE,45,0.0,0.0,97,0.00,,,0.00,100,Homeseer,2013-01-21 12:55:00,
2013-01-21 14:00:00,33.6,32.8,29.77,East,90,0.0,0.0,97,0.00,,,0.00,92,Homeseer,2013-01-21 13:00:00,
2013-01-21 14:05:00,33.7,32.9,29.77,East,90,0.0,0.0,97,0.00,,,0.00,88,Homeseer,2013-01-21 13:05:00,
2013-01-21 14:10:00,33.6,32.8,29.80,NE,45,0.0,0.0,97,0.00,,,0.00,80,Homeseer,2013-01-21 13:10:00,
2013-01-21 14:15:00,33.3,32.6,29.77,NE,45,0.0,0.0,97,0.00,,,0.00,60,Homeseer,2013-01-21 13:15:00,
2013-01-21 14:20:00,33.3,32.6,29.77,NE,45,0.0,0.0,97,0.00,,,0.00,52,Homeseer,2013-01-21 13:20:00,
2013-01-21 14:25:00,33.1,32.4,29.77,NE,45,0.0,0.0,97,0.00,,,0.00,64,Homeseer,2013-01-21 13:25:00,
2013-01-21 14:30:00,33.1,32.4,29.77,NE,45,0.0,0.0,97,0.00,,,0.00,68,Homeseer,2013-01-21 13:30:00,
2013-01-21 14:35:00,33.1,32.4,29.77,NE,45,0.0,0.0,97,0.00,,,0.00,52,Homeseer,2013-01-21 13:35:00,
2013-01-21 14:40:00,33.0,32.2,29.77,NE,45,0.0,0.0,97,0.00,,,0.00,60,Homeseer,2013-01-21 13:40:00,
2013-01-21 14:45:00,33.0,32.2,29.77,East,90,0.0,0.0,97,0.00,,,0.00,68,Homeseer,2013-01-21 13:45:00,
2013-01-21 14:50:00,33.1,32.4,29.77,East,90,0.0,0.0,97,0.00,,,0.00,68,Homeseer,2013-01-21 13:50:00,
2013-01-21 14:55:00,33.1,32.4,29.77,NE,45,0.0,0.0,97,0.00,,,0.00,68,Homeseer,2013-01-21 13:55:00,
2013-01-21 15:00:00,33.0,32.2,29.77,NE,45,0.0,0.0,97,0.00,,,0.00,60,Homeseer,2013-01-21 14:00:00,
2013-01-21 15:05:00,33.0,32.2,29.77,NE,45,0.0,0.0,97,0.00,,,0.00,56,Homeseer,2013-01-21 14:05:00,
2013-01-21 15:10:00,33.0,32.2,29.80,East,90,0.0,0.0,97,0.00,,,0.00,52,Homeseer,2013-01-21 14:10:00,
2013-01-21 15:15:00,33.0,32.2,29.77,East,90,0.0,0.0,97,0.00,,,0.00,48,Homeseer,2013-01-21 14:15:00,
2013-01-21 15:20:00,33.0,32.2,29.80,NE,45,0.0,0.0,97,0.00,,,0.00,44,Homeseer,2013-01-21 14:20:00,
2013-01-21 15:25:00,32.9,32.1,29.80,East,90,0.0,0.0,97,0.00,,,0.00,40,Homeseer,2013-01-21 14:25:00,
2013-01-21 15:30:00,33.0,32.2,29.80,NE,45,0.0,0.0,97,0.00,,,0.00,36,Homeseer,2013-01-21 14:30:00,
2013-01-21 15:35:00,33.0,32.2,29.80,East,90,0.0,0.0,97,0.00,,,0.00,36,Homeseer,2013-01-21 14:35:00,
2013-01-21 15:40:00,32.9,32.1,29.77,NE,45,0.0,0.0,97,0.00,,,0.00,36,Homeseer,2013-01-21 14:40:00,
2013-01-21 15:45:00,32.9,32.1,29.80,NE,45,0.0,0.0,97,0.00,,,0.00,32,Homeseer,2013-01-21 14:45:00,
2013-01-21 15:50:00,32.9,32.1,29.80,East,90,0.0,0.0,97,0.00,,,0.00,32,Homeseer,2013-01-21 14:50:00,
2013-01-21 15:55:00,32.9,32.1,29.80,East,90,0.0,0.0,97,0.00,,,0.00,28,Homeseer,2013-01-21 14:55:00,
2013-01-21 16:00:00,32.9,32.1,29.80,East,90,0.0,0.0,97,0.00,,,0.00,24,Homeseer,2013-01-21 15:00:00,
2013-01-21 16:05:00,32.8,32.0,29.80,NE,45,0.0,0.0,97,0.00,,,0.00,20,Homeseer,2013-01-21 15:05:00,
2013-01-21 16:10:00,32.8,32.0,29.80,NE,45,2.5,2.5,97,0.00,,,0.00,20,Homeseer,2013-01-21 15:10:00,
2013-01-21 16:15:00,32.7,31.9,29.80,NE,45,1.2,1.2,97,0.00,,,0.00,16,Homeseer,2013-01-21 15:15:00,
2013-01-21 16:20:00,32.7,31.9,29.80,NE,45,1.2,1.2,97,0.00,,,0.00,16,Homeseer,2013-01-21 15:20:00,
2013-01-21 16:25:00,32.6,31.8,29.80,NE,45,1.2,1.2,97,0.00,,,0.00,12,Homeseer,2013-01-21 15:25:00,
2013-01-21 16:30:00,32.6,31.8,29.80,NE,45,1.2,1.2,97,0.00,,,0.00,12,Homeseer,2013-01-21 15:30:00,
2013-01-21 16:35:00,32.5,31.7,29.80,NE,45,1.9,1.9,97,0.00,,,0.00,8,Homeseer,2013-01-21 15:35:00,
2013-01-21 16:40:00,32.5,31.7,29.80,NE,45,1.9,1.9,97,0.00,,,0.00,8,Homeseer,2013-01-21 15:40:00,
2013-01-21 16:45:00,32.3,31.6,29.80,NE,45,1.9,1.9,97,0.00,,,0.00,4,Homeseer,2013-01-21 15:45:00,
2013-01-21 16:50:00,32.5,31.7,29.80,NE,45,1.2,1.2,97,0.00,,,0.00,4,Homeseer,2013-01-21 15:50:00,
2013-01-21 16:55:00,32.3,31.6,29.80,NE,45,1.9,1.9,97,0.00,,,0.00,4,Homeseer,2013-01-21 15:55:00,
2013-01-21 17:00:00,32.2,31.5,29.80,NE,45,0.6,0.6,97,0.00,,,0.00,0,Homeseer,2013-01-21 16:00:00,
2013-01-21 17:05:00,32.1,31.4,29.80,NE,45,1.2,1.2,97,0.00,,,0.00,0,Homeseer,2013-01-21 16:05:00,
2013-01-21 17:10:00,32.0,31.2,29.80,NE,45,1.2,1.2,97,0.00,,,0.00,0,Homeseer,2013-01-21 16:10:00,
2013-01-21 17:15:00,31.9,31.1,29.80,NE,45,1.2,1.2,97,0.00,,,0.00,0,Homeseer,2013-01-21 16:15:00,
2013-01-21 17:20:00,31.9,31.1,29.80,North,0,0.6,0.6,97,0.00,,,0.00,0,Homeseer,2013-01-21 16:20:00,
2013-01-21 17:25:00,31.9,31.1,29.80,NE,45,1.2,1.2,97,0.00,,,0.00,0,Homeseer,2013-01-21 16:25:00,
2013-01-21 17:30:00,31.9,31.1,29.80,NE,45,1.9,1.9,97,0.00,,,0.00,0,Homeseer,2013-01-21 16:30:00,
2013-01-21 17:35:00,31.9,31.1,29.80,NE,45,1.2,1.2,97,0.00,,,0.00,0,Homeseer,2013-01-21 16:35:00,
2013-01-21 17:40:00,31.9,31.1,29.80,NE,45,1.2,1.2,97,0.00,,,0.00,0,Homeseer,2013-01-21 16:40:00,
2013-01-21 17:45:00,31.9,31.1,29.80,NE,45,2.5,2.5,97,0.00,,,0.00,0,Homeseer,2013-01-21 16:45:00,
2013-01-21 17:50:00,31.9,31.1,29.80,North,0,1.9,1.9,97,0.00,,,0.00,0,Homeseer,2013-01-21 16:50:00,
2013-01-21 17:55:00,31.8,31.0,29.80,NE,45,1.9,1.9,97,0.00,,,0.00,0,Homeseer,2013-01-21 16:55:00,
2013-01-21 18:00:00,31.9,31.1,29.80,NE,45,1.9,1.9,97,0.00,,,0.00,0,Homeseer,2013-01-21 17:00:00,
2013-01-21 18:05:00,31.9,31.1,29.80,NE,45,3.1,3.1,97,0.00,,,0.00,0,Homeseer,2013-01-21 17:05:00,
2013-01-21 18:10:00,31.9,31.1,29.80,NE,45,1.2,1.2,97,0.00,,,0.00,0,Homeseer,2013-01-21 17:10:00,
2013-01-21 18:15:00,31.9,31.1,29.80,NE,45,2.5,2.5,97,0.00,,,0.00,0,Homeseer,2013-01-21 17:15:00,
2013-01-21 18:20:00,31.8,31.0,29.80,NE,45,1.9,1.9,97,0.00,,,0.00,0,Homeseer,2013-01-21 17:20:00,
2013-01-21 18:25:00,31.8,31.0,29.80,NE,45,1.9,1.9,97,0.00,,,0.00,0,Homeseer,2013-01-21 17:25:00,
2013-01-21 18:30:00,31.8,31.0,29.80,East,90,3.1,3.1,97,0.00,,,0.00,0,Homeseer,2013-01-21 17:30:00,
2013-01-21 18:35:00,31.8,31.0,29.80,NE,45,3.1,3.1,97,0.00,,,0.00,0,Homeseer,2013-01-21 17:35:00,
2013-01-21 18:40:00,31.8,31.0,29.80,NE,45,5.0,5.0,97,0.00,,,0.00,0,Homeseer,2013-01-21 17:40:00,
2013-01-21 18:45:00,31.9,31.1,29.80,NE,45,2.5,2.5,97,0.00,,,0.00,0,Homeseer,2013-01-21 17:45:00,
2013-01-21 18:50:00,31.8,31.0,29.80,NE,45,1.9,1.9,97,0.00,,,0.00,0,Homeseer,2013-01-21 17:50:00,
2013-01-21 19:00:00,31.8,31.0,29.80,NE,45,2.5,2.5,97,0.00,,,0.00,0,Homeseer,2013-01-21 18:00:00,
2013-01-21 19:05:00,31.7,30.9,29.80,NE,45,3.1,3.1,97,0.00,,,0.00,0,Homeseer,2013-01-21 18:05:00,
2013-01-21 19:10:00,31.8,31.0,29.80,NE,45,2.5,2.5,97,0.00,,,0.00,0,Homeseer,2013-01-21 18:10:00,
2013-01-21 19:15:00,31.7,30.9,29.80,NE,45,2.5,2.5,97,0.00,,,0.00,0,Homeseer,2013-01-21 18:15:00,
2013-01-21 19:20:00,31.7,30.9,29.80,NE,45,2.5,2.5,97,0.00,,,0.00,0,Homeseer,2013-01-21 18:20:00,
2013-01-21 19:25:00,31.5,30.8,29.80,NE,45,1.9,1.9,97,0.00,,,0.00,0,Homeseer,2013-01-21 18:25:00,
2013-01-21 19:30:00,31.5,30.8,29.80,NE,45,2.5,2.5,97,0.00,,,0.00,0,Homeseer,2013-01-21 18:30:00,
2013-01-21 19:35:00,31.5,30.8,29.80,NE,45,1.9,1.9,97,0.00,,,0.00,0,Homeseer,2013-01-21 18:35:00,
2013-01-21 19:40:00,31.5,30.8,29.80,NE,45,1.9,1.9,97,0.00,,,0.00,0,Homeseer,2013-01-21 18:40:00,
2013-01-21 19:45:00,31.5,30.8,29.80,NE,45,2.5,2.5,97,0.00,,,0.00,0,Homeseer,2013-01-21 18:45:00,
2013-01-21 19:50:00,31.5,30.8,29.80,East,90,2.5,2.5,97,0.00,,,0.00,0,Homeseer,2013-01-21 18:50:00,
2013-01-21 19:55:00,31.4,30.7,29.80,NE,45,1.9,1.9,97,0.00,,,0.00,0,Homeseer,2013-01-21 18:55:00,
2013-01-21 20:05:00,31.4,30.7,29.80,NE,45,0.6,0.6,97,0.00,,,0.00,0,Homeseer,2013-01-21 19:05:00,
2013-01-21 20:15:00,31.3,30.6,29.83,NE,45,1.2,1.2,97,0.00,,,0.00,0,Homeseer,2013-01-21 19:15:00,
2013-01-21 20:20:00,31.2,30.5,29.83,NE,45,1.2,1.2,97,0.00,,,0.00,0,Homeseer,2013-01-21 19:20:00,
2013-01-21 20:25:00,31.3,30.6,29.83,NE,45,2.5,2.5,97,0.00,,,0.00,0,Homeseer,2013-01-21 19:25:00,
2013-01-21 20:35:00,31.3,30.6,29.83,North,0,0.6,0.6,97,0.00,,,0.00,0,Homeseer,2013-01-21 19:35:00,
2013-01-21 20:40:00,31.2,30.5,29.83,NE,45,0.6,0.6,97,0.00,,,0.00,0,Homeseer,2013-01-21 19:40:00,
2013-01-21 20:45:00,31.2,30.5,29.83,NE,45,0.0,0.0,97,0.00,,,0.00,0,Homeseer,2013-01-21 19:45:00,
2013-01-21 20:50:00,31.3,30.6,29.83,NE,45,0.6,0.6,97,0.00,,,0.00,0,Homeseer,2013-01-21 19:50:00,
2013-01-21 20:55:00,31.2,30.5,29.83,NE,45,0.6,0.6,97,0.00,,,0.00,0,Homeseer,2013-01-21 19:55:00,
2013-01-21 21:00:00,31.2,30.5,29.83,North,0,0.0,0.0,97,0.00,,,0.00,0,Homeseer,2013-01-21 20:00:00,
2013-01-21 21:05:00,31.1,30.4,29.83,NE,45,1.2,1.2,97,0.00,,,0.00,0,Homeseer,2013-01-21 20:05:00,
2013-01-21 21:10:00,31.2,30.5,29.83,North,0,0.6,0.6,97,0.00,,,0.00,0,Homeseer,2013-01-21 20:10:00,
2013-01-21 21:15:00,31.0,30.2,29.83,North,0,0.6,0.6,97,0.00,,,0.00,0,Homeseer,2013-01-21 20:15:00,
2013-01-21 21:20:00,31.0,30.2,29.83,North,0,0.6,0.6,97,0.00,,,0.00,0,Homeseer,2013-01-21 20:20:00,
2013-01-21 21:25:00,30.9,30.1,29.83,North,0,1.2,1.2,97,0.00,,,0.00,0,Homeseer,2013-01-21 20:25:00,
2013-01-21 21:30:00,30.8,30.0,29.83,North,0,1.2,1.2,97,0.00,,,0.00,0,Homeseer,2013-01-21 20:30:00,
2013-01-21 21:35:00,30.8,30.0,29.83,NE,45,1.2,1.2,97,0.00,,,0.00,0,Homeseer,2013-01-21 20:35:00,
2013-01-21 21:40:00,30.8,30.0,29.83,North,0,1.2,1.2,97,0.00,,,0.00,0,Homeseer,2013-01-21 20:40:00,
2013-01-21 21:45:00,30.6,29.9,29.83,North,0,1.2,1.2,97,0.00,,,0.00,0,Homeseer,2013-01-21 20:45:00,
2013-01-21 21:50:00,30.5,29.8,29.83,North,0,0.6,0.6,97,0.00,,,0.00,0,Homeseer,2013-01-21 20:50:00,
2013-01-21 21:55:00,30.5,29.8,29.83,North,0,0.0,0.0,97,0.00,,,0.00,0,Homeseer,2013-01-21 20:55:00,
2013-01-21 22:00:00,30.5,29.8,29.83,North,0,0.6,0.6,97,0.00,,,0.00,0,Homeseer,2013-01-21 21:00:00,
2013-01-21 22:05:00,30.5,29.8,29.83,North,0,0.6,0.6,97,0.00,,,0.00,0,Homeseer,2013-01-21 21:05:00,
2013-01-21 22:10:00,30.4,29.7,29.83,NW,315,0.0,0.0,97,0.00,,,0.00,0,Homeseer,2013-01-21 21:10:00,
2013-01-21 22:15:00,30.5,29.8,29.83,NW,315,0.6,0.6,97,0.00,,,0.00,0,Homeseer,2013-01-21 21:15:00,
2013-01-21 22:20:00,30.6,29.9,29.83,NW,315,0.6,0.6,97,0.00,,,0.00,0,Homeseer,2013-01-21 21:20:00,
2013-01-21 22:25:00,30.5,29.8,29.83,North,0,1.2,1.2,97,0.00,,,0.00,0,Homeseer,2013-01-21 21:25:00,
2013-01-21 22:30:00,30.4,29.7,29.83,North,0,1.9,1.9,97,0.00,,,0.00,0,Homeseer,2013-01-21 21:30:00,
2013-01-21 22:35:00,30.3,29.6,29.83,North,0,2.5,2.5,97,0.00,,,0.00,0,Homeseer,2013-01-21 21:35:00,
2013-01-21 22:40:00,30.4,29.7,29.83,North,0,1.2,1.2,97,0.00,,,0.00,0,Homeseer,2013-01-21 21:40:00,
2013-01-21 22:45:00,30.3,29.6,29.83,North,0,1.2,1.2,97,0.00,,,0.00,0,Homeseer,2013-01-21 21:45:00,
2013-01-21 22:50:00,30.3,29.6,29.83,NW,315,0.6,0.6,97,0.00,,,0.00,0,Homeseer,2013-01-21 21:50:00,
2013-01-21 22:55:00,30.3,29.6,29.83,North,0,1.2,1.2,97,0.00,,,0.00,0,Homeseer,2013-01-21 21:55:00,
2013-01-21 23:00:00,30.3,29.6,29.83,North,0,1.9,1.9,97,0.00,,,0.00,0,Homeseer,2013-01-21 22:00:00,
2013-01-21 23:05:00,30.2,29.5,29.83,North,0,1.2,1.2,97,0.00,,,0.00,0,Homeseer,2013-01-21 22:05:00,
2013-01-21 23:10:00,30.2,29.5,29.83,North,0,1.2,1.2,97,0.00,,,0.00,0,Homeseer,2013-01-21 22:10:00,
2013-01-21 23:15:00,30.1,29.3,29.83,North,0,1.2,1.2,97,0.00,,,0.00,0,Homeseer,2013-01-21 22:15:00,
2013-01-21 23:20:00,30.1,29.3,29.83,North,0,1.2,1.2,97,0.00,,,0.00,0,Homeseer,2013-01-21 22:20:00,
2013-01-21 23:25:00,30.1,29.3,29.83,NW,315,2.5,2.5,97,0.00,,,0.00,0,Homeseer,2013-01-21 22:25:00,
2013-01-21 23:30:00,30.1,29.3,29.83,North,0,1.2,1.2,97,0.00,,,0.00,0,Homeseer,2013-01-21 22:30:00,
2013-01-21 23:35:00,30.0,29.2,29.83,North,0,1.2,1.2,97,0.00,,,0.00,0,Homeseer,2013-01-21 22:35:00,
2013-01-21 23:40:00,30.0,29.2,29.83,North,0,1.2,1.2,97,0.00,,,0.00,0,Homeseer,2013-01-21 22:40:00,
2013-01-21 23:45:00,29.8,29.0,29.86,North,0,1.9,1.9,97,0.00,,,0.00,0,Homeseer,2013-01-21 22:45:00,
2013-01-21 23:50:00,29.9,29.1,29.86,North,0,1.2,1.9,97,0.00,,,0.00,0,Homeseer,2013-01-21 22:50:00,
2013-01-21 23:55:00,29.8,29.0,29.86,North,0,1.9,1.9,97,0.00,,,0.00,0,Homeseer,2013-01-21 22:55:00,